sensor_id;sensor_type;location;lat;lon;timestamp;P1;durP1;ratioP1;P2;durP2;ratioP2
13443;SDS011;6794;59.218;18.218;2023-05-10T00:00:32;5.40;;;3.50;;
13443;SDS011;6794;59.218;18.218;2023-05-10T00:02:58;8.07;;;4.07;;
13443;SDS011;6794;59.218;18.218;2023-05-10T00:05:24;5.23;;;4.27;;
13443;SDS011;6794;59.218;18.218;2023-05-10T00:07:50;6.30;;;4.43;;
13443;SDS011;6794;59.218;18.218;2023-05-10T00:10:16;4.37;;;3.90;;
13443;SDS011;6794;59.218;18.218;2023-05-10T00:12:42;4.50;;;3.83;;
13443;SDS011;6794;59.218;18.218;2023-05-10T00:15:08;4.20;;;3.73;;
13443;SDS011;6794;59.218;18.218;2023-05-10T00:17:35;5.57;;;3.53;;
13443;SDS011;6794;59.218;18.218;2023-05-10T00:20:01;5.07;;;3.50;;
13443;SDS011;6794;59.218;18.218;2023-05-10T00:22:27;5.37;;;3.73;;
13443;SDS011;6794;59.218;18.218;2023-05-10T00:24:53;4.40;;;3.27;;
13443;SDS011;6794;59.218;18.218;2023-05-10T00:27:19;8.00;;;3.43;;
13443;SDS011;6794;59.218;18.218;2023-05-10T00:29:45;8.87;;;3.70;;
13443;SDS011;6794;59.218;18.218;2023-05-10T00:32:11;4.30;;;3.90;;
13443;SDS011;6794;59.218;18.218;2023-05-10T00:34:38;6.40;;;3.73;;
13443;SDS011;6794;59.218;18.218;2023-05-10T00:37:04;5.50;;;3.67;;
13443;SDS011;6794;59.218;18.218;2023-05-10T00:39:30;6.43;;;3.43;;
13443;SDS011;6794;59.218;18.218;2023-05-10T00:41:56;5.33;;;3.63;;
13443;SDS011;6794;59.218;18.218;2023-05-10T00:44:22;4.90;;;3.67;;
13443;SDS011;6794;59.218;18.218;2023-05-10T00:46:48;5.53;;;3.40;;
13443;SDS011;6794;59.218;18.218;2023-05-10T00:49:15;5.97;;;3.57;;
13443;SDS011;6794;59.218;18.218;2023-05-10T00:51:41;5.33;;;3.70;;
13443;SDS011;6794;59.218;18.218;2023-05-10T00:54:11;6.70;;;3.80;;
13443;SDS011;6794;59.218;18.218;2023-05-10T00:56:37;4.50;;;3.87;;
13443;SDS011;6794;59.218;18.218;2023-05-10T00:59:03;4.47;;;3.40;;
13443;SDS011;6794;59.218;18.218;2023-05-10T01:01:29;5.27;;;3.63;;
13443;SDS011;6794;59.218;18.218;2023-05-10T01:03:56;5.00;;;3.67;;
13443;SDS011;6794;59.218;18.218;2023-05-10T01:06:22;6.37;;;3.63;;
13443;SDS011;6794;59.218;18.218;2023-05-10T01:08:48;5.87;;;3.60;;
13443;SDS011;6794;59.218;18.218;2023-05-10T01:11:15;4.47;;;3.47;;
13443;SDS011;6794;59.218;18.218;2023-05-10T01:13:41;4.43;;;3.67;;
13443;SDS011;6794;59.218;18.218;2023-05-10T01:16:08;5.80;;;3.90;;
13443;SDS011;6794;59.218;18.218;2023-05-10T01:18:38;7.50;;;3.53;;
13443;SDS011;6794;59.218;18.218;2023-05-10T01:36:31;6.73;;;4.70;;
13443;SDS011;6794;59.218;18.218;2023-05-10T01:39:01;5.70;;;4.10;;
13443;SDS011;6794;59.218;18.218;2023-05-10T01:44:08;7.60;;;3.97;;
13443;SDS011;6794;59.218;18.218;2023-05-10T01:46:36;5.47;;;3.60;;
13443;SDS011;6794;59.218;18.218;2023-05-10T01:49:03;5.47;;;3.43;;
13443;SDS011;6794;59.218;18.218;2023-05-10T01:51:36;4.50;;;3.53;;
13443;SDS011;6794;59.218;18.218;2023-05-10T01:54:03;7.67;;;3.93;;
13443;SDS011;6794;59.218;18.218;2023-05-10T01:56:30;5.47;;;4.00;;
13443;SDS011;6794;59.218;18.218;2023-05-10T01:58:57;8.53;;;3.80;;
13443;SDS011;6794;59.218;18.218;2023-05-10T02:01:24;4.77;;;3.73;;
13443;SDS011;6794;59.218;18.218;2023-05-10T02:03:51;4.73;;;3.80;;
13443;SDS011;6794;59.218;18.218;2023-05-10T02:06:18;6.13;;;3.93;;
13443;SDS011;6794;59.218;18.218;2023-05-10T02:08:45;6.13;;;3.67;;
13443;SDS011;6794;59.218;18.218;2023-05-10T02:11:12;4.72;;;4.20;;
13443;SDS011;6794;59.218;18.218;2023-05-10T02:13:39;7.38;;;4.38;;
13443;SDS011;6794;59.218;18.218;2023-05-10T02:16:05;4.90;;;3.63;;
13443;SDS011;6794;59.218;18.218;2023-05-10T02:18:32;4.87;;;3.40;;
13443;SDS011;6794;59.218;18.218;2023-05-10T02:20:59;6.37;;;3.93;;
13443;SDS011;6794;59.218;18.218;2023-05-10T02:23:25;3.47;;;3.10;;
13443;SDS011;6794;59.218;18.218;2023-05-10T02:25:51;5.50;;;3.60;;
13443;SDS011;6794;59.218;18.218;2023-05-10T02:28:19;7.07;;;4.20;;
13443;SDS011;6794;59.218;18.218;2023-05-10T02:30:47;5.00;;;3.90;;
13443;SDS011;6794;59.218;18.218;2023-05-10T02:33:13;4.63;;;3.80;;
13443;SDS011;6794;59.218;18.218;2023-05-10T02:35:40;4.73;;;3.50;;
13443;SDS011;6794;59.218;18.218;2023-05-10T02:38:06;4.93;;;3.50;;
13443;SDS011;6794;59.218;18.218;2023-05-10T02:40:33;5.83;;;3.80;;
13443;SDS011;6794;59.218;18.218;2023-05-10T02:42:59;5.23;;;3.97;;
13443;SDS011;6794;59.218;18.218;2023-05-10T02:45:28;4.63;;;3.50;;
13443;SDS011;6794;59.218;18.218;2023-05-10T02:47:55;3.97;;;3.57;;
13443;SDS011;6794;59.218;18.218;2023-05-10T02:50:21;4.30;;;3.43;;
13443;SDS011;6794;59.218;18.218;2023-05-10T02:52:49;6.23;;;3.67;;
13443;SDS011;6794;59.218;18.218;2023-05-10T02:55:21;7.43;;;4.53;;
13443;SDS011;6794;59.218;18.218;2023-05-10T02:57:51;5.77;;;3.93;;
13443;SDS011;6794;59.218;18.218;2023-05-10T03:00:18;7.73;;;4.40;;
13443;SDS011;6794;59.218;18.218;2023-05-10T03:02:44;5.27;;;4.10;;
13443;SDS011;6794;59.218;18.218;2023-05-10T03:05:10;5.23;;;3.97;;
13443;SDS011;6794;59.218;18.218;2023-05-10T03:07:36;5.23;;;3.80;;
13443;SDS011;6794;59.218;18.218;2023-05-10T03:10:02;4.07;;;3.27;;
13443;SDS011;6794;59.218;18.218;2023-05-10T03:15:15;5.03;;;3.80;;
13443;SDS011;6794;59.218;18.218;2023-05-10T03:20:26;8.13;;;4.27;;
13443;SDS011;6794;59.218;18.218;2023-05-10T03:22:55;7.00;;;4.10;;
13443;SDS011;6794;59.218;18.218;2023-05-10T03:25:21;5.63;;;3.90;;
13443;SDS011;6794;59.218;18.218;2023-05-10T03:27:48;4.33;;;3.63;;
13443;SDS011;6794;59.218;18.218;2023-05-10T03:30:15;5.33;;;3.70;;
13443;SDS011;6794;59.218;18.218;2023-05-10T03:32:41;6.33;;;3.87;;
13443;SDS011;6794;59.218;18.218;2023-05-10T03:35:08;6.47;;;4.20;;
13443;SDS011;6794;59.218;18.218;2023-05-10T03:37:34;5.43;;;4.40;;
13443;SDS011;6794;59.218;18.218;2023-05-10T03:40:01;4.57;;;4.07;;
13443;SDS011;6794;59.218;18.218;2023-05-10T03:42:27;4.23;;;3.67;;
13443;SDS011;6794;59.218;18.218;2023-05-10T03:44:53;5.03;;;3.83;;
13443;SDS011;6794;59.218;18.218;2023-05-10T03:47:19;5.20;;;3.87;;
13443;SDS011;6794;59.218;18.218;2023-05-10T03:49:45;6.70;;;3.70;;
13443;SDS011;6794;59.218;18.218;2023-05-10T03:52:11;7.33;;;3.47;;
13443;SDS011;6794;59.218;18.218;2023-05-10T03:54:37;6.73;;;4.07;;
13443;SDS011;6794;59.218;18.218;2023-05-10T03:57:03;8.17;;;4.50;;
13443;SDS011;6794;59.218;18.218;2023-05-10T03:59:29;6.10;;;5.43;;
13443;SDS011;6794;59.218;18.218;2023-05-10T04:01:56;7.17;;;4.73;;
13443;SDS011;6794;59.218;18.218;2023-05-10T04:04:22;6.20;;;5.13;;
13443;SDS011;6794;59.218;18.218;2023-05-10T04:06:48;8.20;;;5.30;;
13443;SDS011;6794;59.218;18.218;2023-05-10T04:09:14;6.13;;;5.40;;
13443;SDS011;6794;59.218;18.218;2023-05-10T04:11:41;5.13;;;4.63;;
13443;SDS011;6794;59.218;18.218;2023-05-10T04:14:07;6.77;;;5.30;;
13443;SDS011;6794;59.218;18.218;2023-05-10T04:16:33;7.50;;;4.90;;
13443;SDS011;6794;59.218;18.218;2023-05-10T04:18:59;9.00;;;4.97;;
13443;SDS011;6794;59.218;18.218;2023-05-10T04:21:25;7.75;;;6.20;;
13443;SDS011;6794;59.218;18.218;2023-05-10T04:23:51;7.23;;;5.70;;
13443;SDS011;6794;59.218;18.218;2023-05-10T04:26:17;9.27;;;5.53;;
13443;SDS011;6794;59.218;18.218;2023-05-10T04:28:43;9.07;;;5.47;;
13443;SDS011;6794;59.218;18.218;2023-05-10T04:31:10;5.20;;;4.70;;
13443;SDS011;6794;59.218;18.218;2023-05-10T04:33:36;7.57;;;5.40;;
13443;SDS011;6794;59.218;18.218;2023-05-10T04:36:02;9.27;;;4.77;;
13443;SDS011;6794;59.218;18.218;2023-05-10T04:38:28;9.37;;;5.00;;
13443;SDS011;6794;59.218;18.218;2023-05-10T04:41:03;9.10;;;5.07;;
13443;SDS011;6794;59.218;18.218;2023-05-10T04:43:30;7.07;;;4.80;;
13443;SDS011;6794;59.218;18.218;2023-05-10T04:45:56;8.50;;;4.63;;
13443;SDS011;6794;59.218;18.218;2023-05-10T04:48:22;7.23;;;4.53;;
13443;SDS011;6794;59.218;18.218;2023-05-10T04:50:48;5.50;;;4.20;;
13443;SDS011;6794;59.218;18.218;2023-05-10T04:53:14;6.43;;;4.13;;
13443;SDS011;6794;59.218;18.218;2023-05-10T04:55:40;6.67;;;4.20;;
13443;SDS011;6794;59.218;18.218;2023-05-10T04:58:06;7.27;;;4.70;;
13443;SDS011;6794;59.218;18.218;2023-05-10T05:00:33;5.47;;;4.53;;
13443;SDS011;6794;59.218;18.218;2023-05-10T05:02:59;6.80;;;4.00;;
13443;SDS011;6794;59.218;18.218;2023-05-10T05:05:25;4.37;;;3.80;;
13443;SDS011;6794;59.218;18.218;2023-05-10T05:07:51;5.30;;;4.23;;
13443;SDS011;6794;59.218;18.218;2023-05-10T05:10:17;4.90;;;3.70;;
13443;SDS011;6794;59.218;18.218;2023-05-10T05:12:43;5.37;;;3.93;;
13443;SDS011;6794;59.218;18.218;2023-05-10T05:15:10;3.87;;;3.43;;
13443;SDS011;6794;59.218;18.218;2023-05-10T05:17:36;5.57;;;3.63;;
13443;SDS011;6794;59.218;18.218;2023-05-10T05:20:02;4.33;;;3.73;;
13443;SDS011;6794;59.218;18.218;2023-05-10T05:22:29;4.73;;;3.63;;
13443;SDS011;6794;59.218;18.218;2023-05-10T05:24:55;6.23;;;3.90;;
13443;SDS011;6794;59.218;18.218;2023-05-10T05:27:21;6.33;;;3.40;;
13443;SDS011;6794;59.218;18.218;2023-05-10T05:29:52;6.33;;;3.67;;
13443;SDS011;6794;59.218;18.218;2023-05-10T05:32:18;3.63;;;3.27;;
13443;SDS011;6794;59.218;18.218;2023-05-10T05:34:45;6.83;;;3.80;;
13443;SDS011;6794;59.218;18.218;2023-05-10T05:37:18;5.63;;;3.67;;
13443;SDS011;6794;59.218;18.218;2023-05-10T05:39:44;4.80;;;3.70;;
13443;SDS011;6794;59.218;18.218;2023-05-10T05:42:11;5.30;;;3.27;;
13443;SDS011;6794;59.218;18.218;2023-05-10T05:44:37;5.53;;;3.30;;
13443;SDS011;6794;59.218;18.218;2023-05-10T05:47:03;7.03;;;3.70;;
13443;SDS011;6794;59.218;18.218;2023-05-10T05:49:29;5.67;;;3.70;;
13443;SDS011;6794;59.218;18.218;2023-05-10T05:52:02;4.87;;;3.60;;
13443;SDS011;6794;59.218;18.218;2023-05-10T05:54:29;6.23;;;3.57;;
13443;SDS011;6794;59.218;18.218;2023-05-10T05:56:59;4.60;;;3.40;;
13443;SDS011;6794;59.218;18.218;2023-05-10T05:59:25;5.37;;;3.70;;
13443;SDS011;6794;59.218;18.218;2023-05-10T06:01:51;6.43;;;3.80;;
13443;SDS011;6794;59.218;18.218;2023-05-10T06:04:18;4.73;;;3.63;;
13443;SDS011;6794;59.218;18.218;2023-05-10T06:06:44;4.80;;;3.27;;
13443;SDS011;6794;59.218;18.218;2023-05-10T06:09:10;3.80;;;3.20;;
13443;SDS011;6794;59.218;18.218;2023-05-10T06:11:36;3.80;;;3.13;;
13443;SDS011;6794;59.218;18.218;2023-05-10T06:14:03;4.10;;;3.20;;
13443;SDS011;6794;59.218;18.218;2023-05-10T06:16:29;4.10;;;3.17;;
13443;SDS011;6794;59.218;18.218;2023-05-10T06:18:55;4.10;;;3.20;;
13443;SDS011;6794;59.218;18.218;2023-05-10T06:21:21;6.80;;;3.07;;
13443;SDS011;6794;59.218;18.218;2023-05-10T06:23:48;4.77;;;3.30;;
13443;SDS011;6794;59.218;18.218;2023-05-10T06:26:14;7.00;;;3.43;;
13443;SDS011;6794;59.218;18.218;2023-05-10T06:28:40;3.60;;;3.30;;
13443;SDS011;6794;59.218;18.218;2023-05-10T06:31:06;4.63;;;3.50;;
13443;SDS011;6794;59.218;18.218;2023-05-10T06:33:33;5.67;;;3.20;;
13443;SDS011;6794;59.218;18.218;2023-05-10T06:35:59;4.50;;;2.87;;
13443;SDS011;6794;59.218;18.218;2023-05-10T06:38:25;3.23;;;2.93;;
13443;SDS011;6794;59.218;18.218;2023-05-10T06:40:51;4.03;;;2.93;;
13443;SDS011;6794;59.218;18.218;2023-05-10T06:43:17;4.33;;;2.90;;
13443;SDS011;6794;59.218;18.218;2023-05-10T06:45:43;4.50;;;2.90;;
13443;SDS011;6794;59.218;18.218;2023-05-10T06:48:09;5.30;;;3.00;;
13443;SDS011;6794;59.218;18.218;2023-05-10T06:50:35;5.13;;;3.10;;
13443;SDS011;6794;59.218;18.218;2023-05-10T06:53:01;3.27;;;2.90;;
13443;SDS011;6794;59.218;18.218;2023-05-10T06:55:27;4.00;;;3.30;;
13443;SDS011;6794;59.218;18.218;2023-05-10T06:57:54;4.53;;;2.90;;
13443;SDS011;6794;59.218;18.218;2023-05-10T07:00:20;3.83;;;3.00;;
13443;SDS011;6794;59.218;18.218;2023-05-10T07:02:46;8.33;;;3.10;;
13443;SDS011;6794;59.218;18.218;2023-05-10T07:05:13;4.37;;;3.20;;
13443;SDS011;6794;59.218;18.218;2023-05-10T07:07:40;3.97;;;3.27;;
13443;SDS011;6794;59.218;18.218;2023-05-10T07:10:06;4.53;;;3.13;;
13443;SDS011;6794;59.218;18.218;2023-05-10T07:12:32;3.77;;;3.13;;
13443;SDS011;6794;59.218;18.218;2023-05-10T07:14:58;3.50;;;2.70;;
13443;SDS011;6794;59.218;18.218;2023-05-10T07:17:24;3.03;;;2.63;;
13443;SDS011;6794;59.218;18.218;2023-05-10T07:19:50;3.47;;;2.40;;
13443;SDS011;6794;59.218;18.218;2023-05-10T07:22:17;4.40;;;3.33;;
13443;SDS011;6794;59.218;18.218;2023-05-10T07:24:43;3.83;;;3.00;;
13443;SDS011;6794;59.218;18.218;2023-05-10T07:27:09;3.60;;;2.90;;
13443;SDS011;6794;59.218;18.218;2023-05-10T07:29:35;6.17;;;3.30;;
13443;SDS011;6794;59.218;18.218;2023-05-10T07:32:02;5.60;;;3.20;;
13443;SDS011;6794;59.218;18.218;2023-05-10T07:34:28;4.10;;;2.63;;
13443;SDS011;6794;59.218;18.218;2023-05-10T07:36:55;3.93;;;3.00;;
13443;SDS011;6794;59.218;18.218;2023-05-10T07:39:21;4.23;;;3.47;;
13443;SDS011;6794;59.218;18.218;2023-05-10T07:41:47;7.23;;;3.67;;
13443;SDS011;6794;59.218;18.218;2023-05-10T07:44:13;3.30;;;2.83;;
13443;SDS011;6794;59.218;18.218;2023-05-10T07:46:42;4.87;;;3.30;;
13443;SDS011;6794;59.218;18.218;2023-05-10T07:49:08;3.53;;;3.20;;
13443;SDS011;6794;59.218;18.218;2023-05-10T07:51:34;5.27;;;2.93;;
13443;SDS011;6794;59.218;18.218;2023-05-10T07:54:00;3.23;;;2.90;;
13443;SDS011;6794;59.218;18.218;2023-05-10T07:56:28;5.20;;;3.05;;
13443;SDS011;6794;59.218;18.218;2023-05-10T07:58:58;3.20;;;2.90;;
13443;SDS011;6794;59.218;18.218;2023-05-10T08:01:24;3.50;;;2.93;;
13443;SDS011;6794;59.218;18.218;2023-05-10T08:03:50;6.30;;;2.87;;
13443;SDS011;6794;59.218;18.218;2023-05-10T08:06:18;3.70;;;2.80;;
13443;SDS011;6794;59.218;18.218;2023-05-10T08:08:45;3.90;;;2.93;;
13443;SDS011;6794;59.218;18.218;2023-05-10T08:11:17;3.93;;;2.77;;
13443;SDS011;6794;59.218;18.218;2023-05-10T08:13:44;3.87;;;3.10;;
13443;SDS011;6794;59.218;18.218;2023-05-10T08:16:10;3.43;;;2.90;;
13443;SDS011;6794;59.218;18.218;2023-05-10T08:18:36;4.70;;;3.03;;
13443;SDS011;6794;59.218;18.218;2023-05-10T08:21:02;3.53;;;2.77;;
13443;SDS011;6794;59.218;18.218;2023-05-10T08:23:28;5.27;;;3.13;;
13443;SDS011;6794;59.218;18.218;2023-05-10T08:25:55;4.43;;;2.93;;
13443;SDS011;6794;59.218;18.218;2023-05-10T08:28:21;3.33;;;2.70;;
13443;SDS011;6794;59.218;18.218;2023-05-10T08:30:47;3.07;;;2.80;;
13443;SDS011;6794;59.218;18.218;2023-05-10T08:33:13;3.17;;;2.87;;
13443;SDS011;6794;59.218;18.218;2023-05-10T08:35:39;7.87;;;2.73;;
13443;SDS011;6794;59.218;18.218;2023-05-10T08:38:05;5.53;;;2.70;;
13443;SDS011;6794;59.218;18.218;2023-05-10T08:40:31;3.50;;;3.00;;
13443;SDS011;6794;59.218;18.218;2023-05-10T08:42:58;3.00;;;2.67;;
13443;SDS011;6794;59.218;18.218;2023-05-10T08:45:27;3.30;;;3.00;;
13443;SDS011;6794;59.218;18.218;2023-05-10T08:47:57;5.57;;;2.87;;
13443;SDS011;6794;59.218;18.218;2023-05-10T08:50:23;5.00;;;2.90;;
13443;SDS011;6794;59.218;18.218;2023-05-10T08:52:50;3.53;;;2.60;;
13443;SDS011;6794;59.218;18.218;2023-05-10T08:55:18;3.43;;;2.97;;
13443;SDS011;6794;59.218;18.218;2023-05-10T08:57:44;8.30;;;3.03;;
13443;SDS011;6794;59.218;18.218;2023-05-10T09:00:11;5.37;;;2.53;;
13443;SDS011;6794;59.218;18.218;2023-05-10T09:02:38;5.80;;;2.50;;
13443;SDS011;6794;59.218;18.218;2023-05-10T09:05:04;2.83;;;2.50;;
13443;SDS011;6794;59.218;18.218;2023-05-10T09:07:30;3.07;;;2.60;;
13443;SDS011;6794;59.218;18.218;2023-05-10T09:09:56;5.07;;;2.60;;
13443;SDS011;6794;59.218;18.218;2023-05-10T09:12:22;4.00;;;2.60;;
13443;SDS011;6794;59.218;18.218;2023-05-10T09:14:49;3.13;;;2.60;;
13443;SDS011;6794;59.218;18.218;2023-05-10T09:17:16;4.27;;;2.97;;
13443;SDS011;6794;59.218;18.218;2023-05-10T09:19:42;3.60;;;2.88;;
13443;SDS011;6794;59.218;18.218;2023-05-10T09:22:08;4.35;;;2.80;;
13443;SDS011;6794;59.218;18.218;2023-05-10T09:24:35;3.03;;;2.67;;
13443;SDS011;6794;59.218;18.218;2023-05-10T09:27:07;3.73;;;2.67;;
13443;SDS011;6794;59.218;18.218;2023-05-10T09:29:40;2.77;;;2.57;;
13443;SDS011;6794;59.218;18.218;2023-05-10T09:32:06;4.10;;;2.53;;
13443;SDS011;6794;59.218;18.218;2023-05-10T09:34:32;5.57;;;2.90;;
13443;SDS011;6794;59.218;18.218;2023-05-10T09:37:01;4.87;;;3.07;;
13443;SDS011;6794;59.218;18.218;2023-05-10T09:39:34;4.07;;;2.23;;
13443;SDS011;6794;59.218;18.218;2023-05-10T09:42:02;8.10;;;3.00;;
13443;SDS011;6794;59.218;18.218;2023-05-10T09:44:29;3.77;;;3.07;;
13443;SDS011;6794;59.218;18.218;2023-05-10T09:46:55;3.17;;;2.70;;
13443;SDS011;6794;59.218;18.218;2023-05-10T09:49:21;6.30;;;2.57;;
13443;SDS011;6794;59.218;18.218;2023-05-10T09:51:51;2.87;;;2.63;;
13443;SDS011;6794;59.218;18.218;2023-05-10T09:54:23;4.20;;;2.80;;
13443;SDS011;6794;59.218;18.218;2023-05-10T09:56:49;3.10;;;2.70;;
13443;SDS011;6794;59.218;18.218;2023-05-10T09:59:15;2.90;;;2.60;;
13443;SDS011;6794;59.218;18.218;2023-05-10T10:01:42;4.57;;;2.77;;
13443;SDS011;6794;59.218;18.218;2023-05-10T10:04:08;2.70;;;2.50;;
13443;SDS011;6794;59.218;18.218;2023-05-10T10:06:35;3.37;;;2.50;;
13443;SDS011;6794;59.218;18.218;2023-05-10T10:09:02;3.80;;;2.80;;
13443;SDS011;6794;59.218;18.218;2023-05-10T10:11:28;4.53;;;2.90;;
13443;SDS011;6794;59.218;18.218;2023-05-10T10:13:54;3.90;;;2.80;;
13443;SDS011;6794;59.218;18.218;2023-05-10T10:16:20;4.77;;;2.50;;
13443;SDS011;6794;59.218;18.218;2023-05-10T10:18:46;3.93;;;2.90;;
13443;SDS011;6794;59.218;18.218;2023-05-10T10:21:13;4.43;;;2.70;;
13443;SDS011;6794;59.218;18.218;2023-05-10T10:23:39;4.90;;;2.97;;
13443;SDS011;6794;59.218;18.218;2023-05-10T10:26:05;4.70;;;2.70;;
13443;SDS011;6794;59.218;18.218;2023-05-10T10:28:35;5.93;;;3.07;;
13443;SDS011;6794;59.218;18.218;2023-05-10T10:31:47;4.50;;;2.63;;
13443;SDS011;6794;59.218;18.218;2023-05-10T10:33:59;3.60;;;2.53;;
13443;SDS011;6794;59.218;18.218;2023-05-10T10:36:26;2.87;;;2.40;;
13443;SDS011;6794;59.218;18.218;2023-05-10T10:38:56;3.60;;;2.40;;
13443;SDS011;6794;59.218;18.218;2023-05-10T10:41:32;2.90;;;2.57;;
13443;SDS011;6794;59.218;18.218;2023-05-10T10:49:25;3.37;;;2.50;;
13443;SDS011;6794;59.218;18.218;2023-05-10T10:54:36;3.80;;;2.63;;
13443;SDS011;6794;59.218;18.218;2023-05-10T10:57:11;5.53;;;2.50;;
13443;SDS011;6794;59.218;18.218;2023-05-10T10:59:41;2.63;;;2.43;;
13443;SDS011;6794;59.218;18.218;2023-05-10T11:02:08;4.43;;;2.63;;
13443;SDS011;6794;59.218;18.218;2023-05-10T11:04:41;3.03;;;2.40;;
13443;SDS011;6794;59.218;18.218;2023-05-10T11:07:20;2.80;;;2.60;;
13443;SDS011;6794;59.218;18.218;2023-05-10T11:09:47;3.10;;;2.50;;
13443;SDS011;6794;59.218;18.218;2023-05-10T11:12:13;3.93;;;3.00;;
13443;SDS011;6794;59.218;18.218;2023-05-10T11:14:39;3.50;;;2.60;;
13443;SDS011;6794;59.218;18.218;2023-05-10T11:17:24;2.60;;;2.40;;
13443;SDS011;6794;59.218;18.218;2023-05-10T11:22:53;4.10;;;2.40;;
13443;SDS011;6794;59.218;18.218;2023-05-10T11:25:20;3.93;;;2.43;;
13443;SDS011;6794;59.218;18.218;2023-05-10T11:27:48;5.05;;;2.60;;
13443;SDS011;6794;59.218;18.218;2023-05-10T11:30:14;3.90;;;2.70;;
13443;SDS011;6794;59.218;18.218;2023-05-10T11:32:40;3.43;;;2.73;;
13443;SDS011;6794;59.218;18.218;2023-05-10T11:35:10;4.33;;;2.60;;
13443;SDS011;6794;59.218;18.218;2023-05-10T11:37:38;4.10;;;2.57;;
13443;SDS011;6794;59.218;18.218;2023-05-10T11:40:08;3.43;;;2.60;;
13443;SDS011;6794;59.218;18.218;2023-05-10T11:42:36;4.57;;;2.67;;
13443;SDS011;6794;59.218;18.218;2023-05-10T11:45:03;4.63;;;3.03;;
13443;SDS011;6794;59.218;18.218;2023-05-10T11:47:29;3.37;;;2.50;;
13443;SDS011;6794;59.218;18.218;2023-05-10T11:49:55;3.60;;;2.77;;
13443;SDS011;6794;59.218;18.218;2023-05-10T11:52:21;3.20;;;2.60;;
13443;SDS011;6794;59.218;18.218;2023-05-10T11:54:53;3.93;;;2.43;;
13443;SDS011;6794;59.218;18.218;2023-05-10T11:57:20;3.40;;;2.50;;
13443;SDS011;6794;59.218;18.218;2023-05-10T11:59:46;3.57;;;2.90;;
13443;SDS011;6794;59.218;18.218;2023-05-10T12:02:13;3.27;;;2.77;;
13443;SDS011;6794;59.218;18.218;2023-05-10T12:04:39;4.73;;;2.13;;
13443;SDS011;6794;59.218;18.218;2023-05-10T12:07:06;2.60;;;2.23;;
13443;SDS011;6794;59.218;18.218;2023-05-10T12:09:32;4.00;;;2.50;;
13443;SDS011;6794;59.218;18.218;2023-05-10T12:11:59;3.00;;;2.03;;
13443;SDS011;6794;59.218;18.218;2023-05-10T12:14:25;3.97;;;2.40;;
13443;SDS011;6794;59.218;18.218;2023-05-10T12:16:53;3.37;;;2.03;;
13443;SDS011;6794;59.218;18.218;2023-05-10T12:19:19;4.00;;;2.60;;
13443;SDS011;6794;59.218;18.218;2023-05-10T12:21:46;2.90;;;2.20;;
13443;SDS011;6794;59.218;18.218;2023-05-10T12:24:12;3.57;;;2.30;;
13443;SDS011;6794;59.218;18.218;2023-05-10T12:26:42;4.73;;;2.20;;
13443;SDS011;6794;59.218;18.218;2023-05-10T12:29:15;2.63;;;1.97;;
13443;SDS011;6794;59.218;18.218;2023-05-10T12:31:55;4.30;;;2.73;;
13443;SDS011;6794;59.218;18.218;2023-05-10T12:34:31;4.77;;;2.70;;
13443;SDS011;6794;59.218;18.218;2023-05-10T12:36:58;4.33;;;2.67;;
13443;SDS011;6794;59.218;18.218;2023-05-10T12:39:24;2.60;;;2.40;;
13443;SDS011;6794;59.218;18.218;2023-05-10T12:41:51;2.93;;;2.63;;
13443;SDS011;6794;59.218;18.218;2023-05-10T12:44:17;3.33;;;2.70;;
13443;SDS011;6794;59.218;18.218;2023-05-10T12:46:43;5.57;;;2.40;;
13443;SDS011;6794;59.218;18.218;2023-05-10T12:49:09;3.67;;;2.40;;
13443;SDS011;6794;59.218;18.218;2023-05-10T12:51:35;3.80;;;2.30;;
13443;SDS011;6794;59.218;18.218;2023-05-10T12:54:02;3.25;;;2.65;;
13443;SDS011;6794;59.218;18.218;2023-05-10T12:56:28;4.50;;;2.37;;
13443;SDS011;6794;59.218;18.218;2023-05-10T12:58:54;3.43;;;2.47;;
13443;SDS011;6794;59.218;18.218;2023-05-10T13:01:20;3.30;;;2.60;;
13443;SDS011;6794;59.218;18.218;2023-05-10T13:03:46;3.80;;;2.30;;
13443;SDS011;6794;59.218;18.218;2023-05-10T13:06:13;4.10;;;2.40;;
13443;SDS011;6794;59.218;18.218;2023-05-10T13:08:39;3.70;;;2.23;;
13443;SDS011;6794;59.218;18.218;2023-05-10T13:11:05;4.10;;;2.63;;
13443;SDS011;6794;59.218;18.218;2023-05-10T13:13:31;6.67;;;2.87;;
13443;SDS011;6794;59.218;18.218;2023-05-10T13:15:57;4.27;;;2.67;;
13443;SDS011;6794;59.218;18.218;2023-05-10T13:18:23;3.87;;;2.70;;
13443;SDS011;6794;59.218;18.218;2023-05-10T13:20:51;2.53;;;2.33;;
13443;SDS011;6794;59.218;18.218;2023-05-10T13:23:17;3.27;;;2.50;;
13443;SDS011;6794;59.218;18.218;2023-05-10T13:25:43;4.10;;;2.93;;
13443;SDS011;6794;59.218;18.218;2023-05-10T13:28:09;6.03;;;2.33;;
13443;SDS011;6794;59.218;18.218;2023-05-10T13:30:35;6.40;;;2.47;;
13443;SDS011;6794;59.218;18.218;2023-05-10T13:33:01;4.70;;;2.60;;
13443;SDS011;6794;59.218;18.218;2023-05-10T13:35:27;3.92;;;2.65;;
13443;SDS011;6794;59.218;18.218;2023-05-10T13:37:53;2.57;;;2.30;;
13443;SDS011;6794;59.218;18.218;2023-05-10T13:40:21;3.00;;;2.50;;
13443;SDS011;6794;59.218;18.218;2023-05-10T13:42:47;2.77;;;2.50;;
13443;SDS011;6794;59.218;18.218;2023-05-10T13:45:13;3.10;;;2.37;;
13443;SDS011;6794;59.218;18.218;2023-05-10T13:47:39;4.73;;;2.20;;
13443;SDS011;6794;59.218;18.218;2023-05-10T13:50:06;4.10;;;2.63;;
13443;SDS011;6794;59.218;18.218;2023-05-10T13:52:32;3.07;;;2.70;;
13443;SDS011;6794;59.218;18.218;2023-05-10T13:54:58;3.27;;;2.10;;
13443;SDS011;6794;59.218;18.218;2023-05-10T13:57:24;3.13;;;2.33;;
13443;SDS011;6794;59.218;18.218;2023-05-10T13:59:51;2.57;;;2.33;;
13443;SDS011;6794;59.218;18.218;2023-05-10T14:02:17;3.60;;;2.10;;
13443;SDS011;6794;59.218;18.218;2023-05-10T14:04:43;2.73;;;2.00;;
13443;SDS011;6794;59.218;18.218;2023-05-10T14:07:09;4.87;;;2.37;;
13443;SDS011;6794;59.218;18.218;2023-05-10T14:09:35;2.97;;;2.43;;
13443;SDS011;6794;59.218;18.218;2023-05-10T14:12:01;2.30;;;2.10;;
13443;SDS011;6794;59.218;18.218;2023-05-10T14:14:27;2.50;;;2.17;;
13443;SDS011;6794;59.218;18.218;2023-05-10T14:16:54;2.10;;;1.90;;
13443;SDS011;6794;59.218;18.218;2023-05-10T14:19:20;2.40;;;2.10;;
13443;SDS011;6794;59.218;18.218;2023-05-10T14:21:46;3.07;;;2.40;;
13443;SDS011;6794;59.218;18.218;2023-05-10T14:24:12;6.20;;;2.10;;
13443;SDS011;6794;59.218;18.218;2023-05-10T14:26:38;3.87;;;2.33;;
13443;SDS011;6794;59.218;18.218;2023-05-10T14:29:04;2.43;;;1.80;;
13443;SDS011;6794;59.218;18.218;2023-05-10T14:31:30;2.10;;;1.90;;
13443;SDS011;6794;59.218;18.218;2023-05-10T14:33:56;2.43;;;1.93;;
13443;SDS011;6794;59.218;18.218;2023-05-10T14:36:22;2.30;;;2.10;;
13443;SDS011;6794;59.218;18.218;2023-05-10T14:38:48;2.73;;;1.97;;
13443;SDS011;6794;59.218;18.218;2023-05-10T14:41:15;2.57;;;2.37;;
13443;SDS011;6794;59.218;18.218;2023-05-10T14:43:42;3.60;;;2.23;;
13443;SDS011;6794;59.218;18.218;2023-05-10T14:46:08;3.83;;;2.30;;
13443;SDS011;6794;59.218;18.218;2023-05-10T14:48:34;2.83;;;1.97;;
13443;SDS011;6794;59.218;18.218;2023-05-10T14:51:01;3.27;;;2.20;;
13443;SDS011;6794;59.218;18.218;2023-05-10T14:53:27;2.27;;;2.07;;
13443;SDS011;6794;59.218;18.218;2023-05-10T14:55:53;3.45;;;2.28;;
13443;SDS011;6794;59.218;18.218;2023-05-10T14:58:19;3.17;;;1.90;;
13443;SDS011;6794;59.218;18.218;2023-05-10T15:00:45;3.55;;;2.28;;
13443;SDS011;6794;59.218;18.218;2023-05-10T15:03:11;2.83;;;2.57;;
13443;SDS011;6794;59.218;18.218;2023-05-10T15:05:37;2.43;;;2.20;;
13443;SDS011;6794;59.218;18.218;2023-05-10T15:08:04;4.23;;;2.63;;
13443;SDS011;6794;59.218;18.218;2023-05-10T15:10:30;3.70;;;2.40;;
13443;SDS011;6794;59.218;18.218;2023-05-10T15:12:57;2.23;;;2.03;;
13443;SDS011;6794;59.218;18.218;2023-05-10T15:15:23;2.20;;;2.00;;
13443;SDS011;6794;59.218;18.218;2023-05-10T15:17:49;3.73;;;2.40;;
13443;SDS011;6794;59.218;18.218;2023-05-10T15:20:15;3.40;;;2.33;;